Time;durP1;ratioP1;P1;durP2;ratioP2;P2;SDS_P1;SDS_P2;PMS_P1;PMS_P2;Temp;Humidity;BMP_temperature;BMP_pressure;BME280_temperature;BME280_humidity;BME280_pressure;Samples;Min_cycle;Max_cycle;Signal;HPM_P1;HPM_P2
2020/12/26 00:01:29;;;;;;;4.45;2.60;;;;;;;17.98;55.16;155850.50;1666112;84;21832;-85
2020/12/26 00:04:03;;;;;;;6.05;2.50;;;;;;;17.93;55.07;155837.33;1658281;84;21373;-83
2020/12/26 00:06:35;;;;;;;5.45;3.52;;;;;;;17.98;54.78;155849.20;1662407;84;22463;-84
2020/12/26 00:09:09;;;;;;;3.90;2.47;;;;;;;17.95;54.39;155842.56;1663107;84;21207;-85
2020/12/26 00:11:42;;;;;;;5.80;2.70;;;;;;;18.02;54.11;155859.72;1663765;84;22629;-85
2020/12/26 00:14:14;;;;;;;7.75;2.83;;;;;;;18.00;54.48;155855.78;1665591;84;21254;-84
2020/12/26 00:16:46;;;;;;;4.87;2.50;;;;;;;17.80;53.05;155803.02;1665644;84;21764;-83
2020/12/26 00:19:20;;;;;;;4.97;2.80;;;;;;;17.88;54.56;155824.11;1661952;84;21270;-82
2020/12/26 00:21:54;;;;;;;4.67;2.65;;;;;;;17.94;54.61;155838.63;1666899;84;21286;-84
2020/12/26 00:24:26;;;;;;;5.28;3.22;;;;;;;17.95;53.65;155842.56;1664737;84;21226;-83
2020/12/26 00:26:59;;;;;;;3.80;2.42;;;;;;;18.01;54.28;155857.08;1652399;85;21253;-84
2020/12/26 00:29:31;;;;;;;4.92;2.92;;;;;;;17.73;50.89;155783.22;1647977;85;21238;-83
2020/12/26 00:32:03;;;;;;;5.90;2.40;;;;;;;17.89;53.24;155826.75;1646372;85;21243;-83
2020/12/26 00:34:36;;;;;;;4.12;1.90;;;;;;;17.82;53.77;155806.97;1688983;82;21376;-83
2020/12/26 00:37:08;;;;;;;3.45;1.80;;;;;;;17.71;52.45;155777.94;1683650;82;21206;-83
2020/12/26 00:39:42;;;;;;;3.52;2.08;;;;;;;17.60;50.83;155748.92;1687452;82;21356;-83
2020/12/26 00:42:14;;;;;;;3.65;2.20;;;;;;;17.71;52.90;155777.94;1691239;82;21340;-82
2020/12/26 00:44:46;;;;;;;4.03;2.10;;;;;;;17.71;52.66;155779.23;1665631;85;21371;-83
2020/12/26 00:47:19;;;;;;;4.62;2.20;;;;;;;17.58;50.78;155743.64;1667765;85;21237;-83
2020/12/26 00:49:51;;;;;;;10.23;3.77;;;;;;;17.64;53.21;155760.80;1665857;85;21310;-83
2020/12/26 00:52:24;;;;;;;18.73;6.35;;;;;;;17.65;53.63;155763.44;1661724;85;21246;-83
2020/12/26 00:54:56;;;;;;;16.62;5.25;;;;;;;17.50;50.52;155723.84;1667325;85;21270;-84
2020/12/26 00:57:29;;;;;;;12.35;3.62;;;;;;;17.63;52.33;155756.84;1657012;85;21277;-83
2020/12/26 01:00:01;;;;;;;5.60;3.02;;;;;;;17.52;51.18;155729.13;1617986;86;21245;-83
2020/12/26 01:02:33;;;;;;;7.03;2.85;;;;;;;17.57;51.73;155741.00;1648885;86;21318;-82
2020/12/26 01:05:06;;;;;;;5.45;3.15;;;;;;;17.62;53.81;155755.50;1647530;86;21206;-83
2020/12/26 01:07:39;;;;;;;4.35;2.33;;;;;;;17.62;53.12;155755.50;1646886;86;21202;-82
2020/12/26 01:10:12;;;;;;;5.33;2.83;;;;;;;17.66;53.40;155766.08;1662979;85;21980;-83
2020/12/26 01:12:44;;;;;;;5.05;2.77;;;;;;;17.64;54.15;155759.50;1662975;85;21278;-83
2020/12/26 01:15:18;;;;;;;4.75;2.15;;;;;;;17.63;53.50;155758.16;1677548;84;21187;-81
2020/12/26 01:17:50;;;;;;;4.37;2.20;;;;;;;17.63;53.75;155756.84;1677184;84;21242;-85
2020/12/26 01:20:23;;;;;;;3.20;1.77;;;;;;;17.56;53.55;155738.36;1673647;84;21210;-85
2020/12/26 01:22:56;;;;;;;3.47;2.00;;;;;;;17.56;52.62;155739.70;1674551;84;21176;-85
2020/12/26 01:25:29;;;;;;;3.62;1.80;;;;;;;17.62;53.42;155754.20;1674106;84;21266;-84
2020/12/26 01:28:03;;;;;;;5.25;1.90;;;;;;;17.59;53.90;155747.58;1678993;84;22399;-81
2020/12/26 01:30:35;;;;;;;5.03;2.52;;;;;;;17.63;53.54;155758.16;1676083;84;21174;-83
2020/12/26 01:33:07;;;;;;;3.98;2.12;;;;;;;17.72;54.29;155781.87;1676896;84;21409;-84
2020/12/26 01:35:40;;;;;;;4.87;2.30;;;;;;;17.65;52.87;155763.44;1678787;84;21253;-83
2020/12/26 01:38:12;;;;;;;2.50;1.70;;;;;;;17.65;53.27;155763.44;1665863;85;21408;-82
2020/12/26 01:40:50;;;;;;;5.30;2.00;;;;;;;17.56;51.84;155738.36;1676084;84;21245;-83
2020/12/26 01:43:23;;;;;;;4.67;2.17;;;;;;;17.54;51.64;155733.06;1670599;84;21248;-82
2020/12/26 01:45:55;;;;;;;9.83;3.35;;;;;;;17.48;50.62;155717.27;1678478;84;21416;-83
2020/12/26 01:48:27;;;;;;;9.40;3.47;;;;;;;17.44;51.79;155708.05;1680061;84;21286;-84
2020/12/26 01:51:00;;;;;;;7.92;3.30;;;;;;;17.59;52.99;155746.28;1680060;82;21463;-85
2020/12/26 01:53:32;;;;;;;5.08;2.60;;;;;;;17.57;51.50;155741.00;1693780;83;21747;-86
2020/12/26 01:56:04;;;;;;;5.22;2.70;;;;;;;17.55;51.52;155737.06;1694959;83;21261;-85
2020/12/26 01:58:37;;;;;;;4.28;2.62;;;;;;;17.48;53.67;155718.56;1697096;83;21238;-86
2020/12/26 02:01:09;;;;;;;3.75;1.92;;;;;;;17.42;51.14;155702.77;1695917;83;21369;-84
2020/12/26 02:03:42;;;;;;;3.60;2.08;;;;;;;17.55;53.29;155735.72;1693647;83;21753;-84
2020/12/26 02:06:14;;;;;;;2.87;1.80;;;;;;;17.52;52.04;155729.13;1695947;83;21277;-84
2020/12/26 02:08:47;;;;;;;4.08;2.20;;;;;;;17.50;52.81;155723.84;1695427;82;21226;-83
2020/12/26 02:11:19;;;;;;;3.42;2.20;;;;;;;17.31;50.96;155673.75;1707691;82;21281;-84
2020/12/26 02:13:52;;;;;;;4.40;2.30;;;;;;;17.36;51.43;155686.91;1687220;82;21396;-83
2020/12/26 02:16:24;;;;;;;4.53;1.82;;;;;;;17.30;51.60;155669.81;1702960;82;21298;-83
2020/12/26 02:18:56;;;;;;;2.83;1.80;;;;;;;17.34;51.76;155680.33;1691767;84;21407;-83
2020/12/26 02:21:29;;;;;;;4.28;2.10;;;;;;;17.32;51.59;155675.05;1688037;84;21396;-83
2020/12/26 02:24:01;;;;;;;6.25;2.10;;;;;;;17.32;52.58;155676.39;1682397;84;21258;-83
2020/12/26 02:26:33;;;;;;;4.90;1.90;;;;;;;17.18;52.29;155638.12;1692703;84;21721;-84
2020/12/26 02:29:07;;;;;;;4.12;2.02;;;;;;;17.31;53.49;155672.41;1691046;84;21740;-81
2020/12/26 02:31:39;;;;;;;4.17;1.90;;;;;;;17.45;52.46;155710.69;1693990;83;21197;-81
2020/12/26 02:34:11;;;;;;;5.28;2.17;;;;;;;17.55;53.17;155737.06;1699397;83;21335;-81
2020/12/26 02:36:44;;;;;;;3.52;1.72;;;;;;;17.52;52.21;155729.13;1697803;83;21786;-82
2020/12/26 02:39:18;;;;;;;4.40;2.05;;;;;;;17.58;50.71;155744.98;1693438;83;21254;-82
2020/12/26 02:41:51;;;;;;;3.27;1.70;;;;;;;17.63;53.21;155758.16;1703724;82;21443;-80
2020/12/26 02:44:24;;;;;;;4.00;1.95;;;;;;;17.62;52.26;155754.20;1694927;83;21245;-82
2020/12/26 02:46:56;;;;;;;4.75;2.40;;;;;;;17.58;51.69;155744.98;1691049;83;21174;-82
2020/12/26 02:49:28;;;;;;;3.62;2.15;;;;;;;17.61;52.55;155752.86;1693638;83;21285;-82
2020/12/26 02:52:00;;;;;;;3.00;1.72;;;;;;;17.59;53.12;155746.28;1692708;83;21182;-81
2020/12/26 02:54:33;;;;;;;3.52;1.90;;;;;;;17.66;53.16;155764.73;1677750;85;21230;-81
2020/12/26 02:57:05;;;;;;;3.30;1.72;;;;;;;17.63;53.69;155758.16;1646368;86;22113;-82
2020/12/26 02:59:38;;;;;;;5.45;2.00;;;;;;;17.58;51.58;155744.98;1678869;85;21230;-83
2020/12/26 03:02:10;;;;;;;5.15;2.42;;;;;;;17.37;51.54;155689.55;1679263;84;21177;-82
2020/12/26 03:04:42;;;;;;;3.22;2.08;;;;;;;17.36;49.98;155685.62;1678504;85;21274;-80
2020/12/26 03:07:14;;;;;;;3.75;1.87;;;;;;;17.17;48.44;155635.47;1678229;85;21671;-81
2020/12/26 03:09:47;;;;;;;4.50;2.12;;;;;;;17.20;50.07;155643.34;1679167;83;21178;-81
2020/12/26 03:12:20;;;;;;;5.22;2.10;;;;;;;16.89;50.60;155561.63;1679667;85;21625;-81
2020/12/26 03:14:52;;;;;;;6.05;2.12;;;;;;;17.09;50.43;155613.05;1679371;85;21214;-81
2020/12/26 03:17:24;;;;;;;3.62;2.05;;;;;;;16.74;49.25;155520.77;1680121;85;21176;-80
2020/12/26 03:19:58;;;;;;;5.55;2.05;;;;;;;16.95;50.05;155576.13;1679870;85;21293;-81
2020/12/26 03:22:30;;;;;;;3.40;1.67;;;;;;;17.07;50.14;155609.06;1680543;85;21257;-80
2020/12/26 03:25:03;;;;;;;3.65;2.08;;;;;;;17.02;49.01;155595.91;1666277;85;21710;-80
2020/12/26 03:27:35;;;;;;;4.65;2.65;;;;;;;17.06;51.71;155605.13;1686232;84;21946;-81
2020/12/26 03:30:08;;;;;;;2.42;1.60;;;;;;;16.95;49.72;155576.13;1679464;85;21211;-80
2020/12/26 03:32:40;;;;;;;2.87;1.98;;;;;;;17.08;52.68;155610.41;1679945;85;21250;-80
2020/12/26 03:35:13;;;;;;;2.95;1.30;;;;;;;17.04;51.51;155601.19;1680435;85;21239;-80
2020/12/26 03:37:45;;;;;;;1.92;1.52;;;;;;;17.18;50.93;155639.41;1682031;83;21204;-82
2020/12/26 03:40:17;;;;;;;2.90;1.60;;;;;;;17.18;49.61;155639.41;1680269;85;21203;-80
2020/12/26 03:42:50;;;;;;;2.92;1.72;;;;;;;17.25;52.10;155657.84;1680533;85;21228;-80
2020/12/26 03:45:22;;;;;;;3.45;1.45;;;;;;;16.97;49.06;155582.70;1680371;85;21174;-81
2020/12/26 03:47:54;;;;;;;3.72;1.60;;;;;;;17.19;52.85;155640.70;1679686;85;21238;-81
2020/12/26 03:50:26;;;;;;;3.58;1.52;;;;;;;17.15;50.62;155630.19;1680149;85;21231;-80
2020/12/26 03:53:00;;;;;;;4.10;1.60;;;;;;;17.18;50.46;155638.12;1680384;85;21757;-81
2020/12/26 03:55:32;;;;;;;2.92;2.02;;;;;;;17.24;51.64;155655.22;1666916;85;21258;-82
2020/12/26 03:58:05;;;;;;;3.85;1.55;;;;;;;17.22;51.04;155649.98;1664316;85;21420;-82
2020/12/26 04:00:38;;;;;;;2.42;1.35;;;;;;;17.38;52.62;155692.19;1670032;85;21250;-81
2020/12/26 04:03:10;;;;;;;2.52;1.70;;;;;;;17.51;52.32;155725.19;1667903;84;21239;-82
2020/12/26 04:05:42;;;;;;;2.87;1.80;;;;;;;17.48;52.45;155718.56;1670718;85;22301;-81
2020/12/26 04:08:17;;;;;;;3.80;2.08;;;;;;;17.32;50.19;155675.05;1669654;85;21338;-81
2020/12/26 04:10:50;;;;;;;2.65;1.55;;;;;;;16.93;48.66;155572.19;1667494;85;21413;-81
2020/12/26 04:13:22;;;;;;;3.62;1.90;;;;;;;16.97;50.28;155581.41;1669628;85;21701;-81
2020/12/26 04:15:54;;;;;;;4.15;2.27;;;;;;;16.91;52.38;155565.56;1668744;85;21240;-81
2020/12/26 04:18:26;;;;;;;3.87;1.77;;;;;;;16.88;52.29;155558.98;1697788;83;21167;-82
2020/12/26 04:20:59;;;;;;;2.60;1.82;;;;;;;16.86;51.44;155552.41;1702677;83;21451;-81
2020/12/26 04:23:31;;;;;;;2.30;1.82;;;;;;;16.57;49.69;155475.94;1704843;83;21765;-81
2020/12/26 04:26:04;;;;;;;5.00;2.15;;;;;;;16.35;50.79;155419.31;1700255;83;21246;-81
2020/12/26 04:28:36;;;;;;;2.75;1.70;;;;;;;16.50;52.58;155457.50;1695361;83;21341;-81
2020/12/26 04:31:10;;;;;;;3.58;2.35;;;;;;;16.42;51.63;155436.44;1694910;83;21383;-81
2020/12/26 04:33:42;;;;;;;3.00;2.02;;;;;;;16.30;51.48;155406.11;1697911;83;21792;-80
2020/12/26 04:36:14;;;;;;;3.40;2.02;;;;;;;16.09;50.88;155349.39;1694142;83;21238;-80
2020/12/26 04:38:47;;;;;;;3.70;1.80;;;;;;;16.16;51.95;155366.52;1696415;83;21867;-80
2020/12/26 04:41:20;;;;;;;3.67;1.98;;;;;;;16.06;51.35;155341.53;1697268;83;21229;-81
2020/12/26 04:43:57;;;;;;;4.22;1.98;;;;;;;15.98;52.06;155319.12;1696443;83;21278;-81
2020/12/26 04:46:29;;;;;;;3.95;2.52;;;;;;;15.98;51.97;155320.41;1695768;83;21384;-81
2020/12/26 04:49:09;;;;;;;3.33;2.30;;;;;;;15.84;50.95;155283.58;1691429;84;21189;-80
2020/12/26 04:51:43;;;;;;;3.17;2.10;;;;;;;15.69;50.30;155242.72;1700958;83;21210;-79
2020/12/26 04:54:25;;;;;;;3.20;1.70;;;;;;;15.56;49.71;155208.52;1699965;83;21214;-80
2020/12/26 04:56:57;;;;;;;1.98;1.62;;;;;;;15.72;52.27;155251.97;1695678;82;21186;-80
2020/12/26 04:59:30;;;;;;;3.37;2.37;;;;;;;15.69;51.63;155242.72;1693766;82;21392;-80
2020/12/26 05:02:02;;;;;;;2.85;1.77;;;;;;;15.65;50.36;155233.50;1697409;83;21198;-82
2020/12/26 05:04:35;;;;;;;3.05;1.82;;;;;;;15.72;52.03;155251.97;1692782;83;21344;-82
2020/12/26 05:07:07;;;;;;;2.42;2.15;;;;;;;15.87;52.49;155290.16;1699104;83;21667;-83
2020/12/26 05:09:51;;;;;;;;;;;;;;;;;;;;;
2020/12/26 05:12:19;;;;;;;2.40;1.53;;;;;;;16.08;52.79;155346.81;1695657;83;21198;-84
2020/12/26 05:14:52;;;;;;;3.40;1.40;;;;;;;16.27;53.46;155396.84;1723024;82;21408;-81
2020/12/26 05:17:24;;;;;;;3.33;1.70;;;;;;;16.28;53.36;155399.48;1715894;82;21218;-82
2020/12/26 05:19:56;;;;;;;2.67;1.62;;;;;;;16.34;53.72;155416.67;1672132;84;21195;-81
2020/12/26 05:22:32;;;;;;;2.12;1.42;;;;;;;16.37;53.39;155423.25;1650116;85;21206;-82
2020/12/26 05:25:08;;;;;;;1.82;1.47;;;;;;;16.41;54.19;155433.81;1665830;85;21235;-82
2020/12/26 05:27:41;;;;;;;4.15;1.90;;;;;;;16.52;54.30;155462.78;1698401;82;21472;-79
2020/12/26 05:30:15;;;;;;;2.60;1.42;;;;;;;16.59;53.79;155482.56;1694315;83;21384;-81
2020/12/26 05:32:47;;;;;;;2.00;1.50;;;;;;;16.60;54.31;155485.20;1694665;83;21226;-83
2020/12/26 05:35:22;;;;;;;0.00;0.00;;;;;;;16.52;54.71;155464.08;1701027;83;21259;-84
2020/12/26 05:37:54;;;;;;;0.00;0.00;;;;;;;16.57;54.64;155475.94;1694143;82;21182;-77
2020/12/26 05:40:26;;;;;;;1999.90;999.90;;;;;;;16.62;54.43;155490.44;1695389;83;21412;-77
2020/12/26 05:42:58;;;;;;;84.70;80.50;;;;;;;16.60;53.98;155485.20;1697371;83;21205;-77
2020/12/26 05:45:34;;;;;;;158.57;151.02;;;;;;;16.54;53.81;155469.36;1699436;83;21337;-78
2020/12/26 05:48:11;;;;;;;1474.38;999.90;;;;;;;16.41;54.30;155433.81;1685602;84;21234;-78
2020/12/26 05:50:44;;;;;;;344.80;330.20;;;;;;;16.42;54.54;155436.44;1698374;84;21214;-78
2020/12/26 05:53:17;;;;;;;111.77;106.35;;;;;;;16.38;54.38;155425.87;1695357;83;21768;-77
2020/12/26 05:55:49;;;;;;;20.88;19.87;;;;;;;16.26;54.26;155392.91;1691499;83;21222;-77
2020/12/26 05:58:24;;;;;;;4.30;4.10;;;;;;;16.21;54.23;155379.72;1667730;84;21254;-78
2020/12/26 06:00:59;;;;;;;1.80;1.05;;;;;;;16.11;54.39;155353.38;1677176;84;21257;-78
2020/12/26 06:03:33;;;;;;;0.40;0.40;;;;;;;16.02;54.47;155330.97;1659333;83;21222;-79
2020/12/26 06:06:06;;;;;;;0.20;0.20;;;;;;;16.01;54.59;155327.03;1677619;84;21233;-79
2020/12/26 06:08:38;;;;;;;0.30;0.10;;;;;;;15.89;54.46;155296.72;1679838;84;21677;-79
2020/12/26 06:11:11;;;;;;;0.10;0.10;;;;;;;15.80;54.62;155273.03;1712328;83;21737;-80
2020/12/26 06:13:44;;;;;;;0.10;0.10;;;;;;;15.72;54.78;155250.63;1691418;85;21282;-79
2020/12/26 06:16:24;;;;;;;0.10;0.10;;;;;;;15.68;54.82;155241.42;1688421;85;21216;-79
2020/12/26 06:19:00;;;;;;;0.00;0.00;;;;;;;15.69;54.79;155242.72;1685160;83;21221;-78
2020/12/26 06:21:32;;;;;;;0.00;0.00;;;;;;;15.58;54.95;155215.09;1690188;84;21236;-76
2020/12/26 06:24:05;;;;;;;0.10;0.10;;;;;;;15.56;54.98;155209.81;1695159;84;22048;-77
2020/12/26 06:26:37;;;;;;;0.00;0.00;;;;;;;15.51;55.12;155195.33;1701253;83;21304;-77
2020/12/26 06:29:10;;;;;;;0.10;0.10;;;;;;;15.47;55.09;155186.13;1712057;82;21307;-76
2020/12/26 06:31:43;;;;;;;0.20;0.20;;;;;;;15.60;54.90;155220.36;1710172;83;21345;-77
2020/12/26 06:34:20;;;;;;;0.17;0.17;;;;;;;15.63;54.18;155228.23;1701967;83;21190;-77
2020/12/26 06:36:56;;;;;;;0.10;0.10;;;;;;;15.57;54.50;155211.11;1703942;82;21812;-76
2020/12/26 06:39:33;;;;;;;0.10;0.10;;;;;;;15.56;54.69;155208.52;1728635;81;21427;-77
2020/12/26 06:42:16;;;;;;;0.10;0.10;;;;;;;15.40;54.76;155166.38;1742824;80;21399;-77
2020/12/26 06:44:49;;;;;;;0.10;0.10;;;;;;;15.30;55.02;155140.05;1705902;83;21888;-75
2020/12/26 06:47:39;;;;;;;0.10;0.10;;;;;;;15.41;54.72;155170.30;1700479;83;21458;-75
2020/12/26 06:50:23;;;;;;;0.03;0.03;;;;;;;15.37;54.84;155158.47;1688291;83;21246;-81
2020/12/26 06:52:55;;;;;;;0.10;0.10;;;;;;;15.40;54.71;155166.38;1700894;83;21325;-77
2020/12/26 06:55:47;;;;;;;0.10;0.10;;;;;;;15.38;53.63;155159.80;1736502;82;21162;-77
2020/12/26 06:58:33;;;;;;;0.10;0.10;;;;;;;15.32;53.55;155143.97;1708693;83;21825;-80
2020/12/26 07:01:26;;;;;;;0.10;0.10;;;;;;;15.25;53.98;155126.86;1708500;83;21373;-80
2020/12/26 07:04:22;;;;;;;0.45;0.20;;;;;;;15.18;54.34;155108.41;1725063;82;21229;-81
2020/12/26 07:06:56;;;;;;;0.30;0.28;;;;;;;15.18;54.19;155108.41;1660048;84;21746;-83
2020/12/26 07:09:42;;;;;;;0.13;0.13;;;;;;;15.18;55.01;155107.06;1701342;84;21238;-81
2020/12/26 07:12:15;;;;;;;0.10;0.10;;;;;;;15.32;54.81;155145.33;1712025;82;21962;-84
2020/12/26 07:14:49;;;;;;;0.20;0.20;;;;;;;15.40;54.62;155167.66;1714341;82;21327;-81
2020/12/26 07:17:28;;;;;;;0.10;0.10;;;;;;;15.40;54.13;155167.66;1691241;82;21328;-76
2020/12/26 07:20:01;;;;;;;0.20;0.20;;;;;;;15.49;54.01;155190.06;1714471;82;21919;-82
2020/12/26 07:22:36;;;;;;;0.10;0.10;;;;;;;15.44;52.98;155178.22;1720578;82;21427;-83
2020/12/26 07:25:09;;;;;;;0.10;0.10;;;;;;;15.55;54.36;155207.17;1720631;82;21277;-82
2020/12/26 07:27:42;;;;;;;1.05;0.98;;;;;;;15.67;54.05;155238.78;1713467;82;21336;-74
2020/12/26 07:30:17;;;;;;;0.47;0.47;;;;;;;15.75;54.39;155259.83;1716715;82;21200;-80
2020/12/26 07:33:03;;;;;;;0.10;0.10;;;;;;;15.90;54.40;155299.36;1715529;82;21344;-82
2020/12/26 07:35:39;;;;;;;0.10;0.10;;;;;;;16.07;54.47;155342.83;1715992;82;21426;-76
2020/12/26 07:38:32;;;;;;;0.10;0.10;;;;;;;16.27;54.98;155398.14;1698635;83;22408;-81
2020/12/26 07:41:08;;;;;;;0.10;0.10;;;;;;;16.66;54.08;155499.69;1763198;81;21328;-74
2020/12/26 07:43:44;;;;;;;0.03;0.03;;;;;;;16.86;52.28;155552.41;1725467;81;21321;-75
2020/12/26 07:46:14;;;;;;;0.00;0.00;;;;;;;17.13;52.72;155623.61;1782468;79;21684;-81
2020/12/26 07:48:57;;;;;;;0.00;0.00;;;;;;;17.38;50.65;155690.91;1784660;79;21308;-76
2020/12/26 07:51:29;;;;;;;0.10;0.10;;;;;;;17.50;51.97;155722.56;1785086;79;21210;-73
2020/12/26 07:54:03;;;;;;;0.00;0.00;;;;;;;18.00;51.45;155855.78;1785989;79;21732;-78
2020/12/26 07:56:35;;;;;;;0.00;0.00;;;;;;;18.51;50.71;155990.47;1787057;79;21173;-78
2020/12/26 07:59:08;;;;;;;0.00;0.00;;;;;;;19.01;48.53;156123.81;1785923;79;21150;-86
2020/12/26 08:01:40;;;;;;;0.25;0.00;;;;;;;19.37;49.88;156220.27;1785030;79;21280;-84
2020/12/26 08:04:13;;;;;;;0.00;0.00;;;;;;;19.08;48.53;156143.64;1785252;79;21755;-71
2020/12/26 08:06:49;;;;;;;0.00;0.00;;;;;;;19.11;48.59;156150.28;1786084;79;21228;-77
2020/12/26 08:09:22;;;;;;;0.00;0.00;;;;;;;19.07;46.13;156139.64;1786185;79;21380;-71
2020/12/26 08:11:56;;;;;;;0.00;0.00;;;;;;;20.26;49.13;156455.53;1784847;79;21975;-73
2020/12/26 08:14:29;;;;;;;0.00;0.00;;;;;;;20.26;47.49;156456.89;1745890;79;21205;-71
2020/12/26 08:17:01;;;;;;;0.10;0.10;;;;;;;20.12;49.66;156419.86;1785771;79;21240;-71
2020/12/26 08:19:35;;;;;;;0.00;0.00;;;;;;;19.91;45.41;156361.66;1754082;80;21343;-70
2020/12/26 08:22:07;;;;;;;0.10;0.10;;;;;;;19.88;46.86;156355.06;1784555;80;21217;-72
2020/12/26 08:24:39;;;;;;;0.08;0.08;;;;;;;20.16;47.22;156429.11;1743510;81;21350;-72
2020/12/26 08:27:12;;;;;;;0.10;0.10;;;;;;;20.49;45.29;156516.34;1742346;81;21422;-73
2020/12/26 08:29:44;;;;;;;0.00;0.00;;;;;;;20.41;48.54;156495.22;1740848;81;22115;-77
2020/12/26 08:32:21;;;;;;;0.00;0.00;;;;;;;20.09;48.65;156411.91;1744185;81;21424;-76
2020/12/26 08:35:04;;;;;;;0.00;0.00;;;;;;;19.50;48.19;156254.62;1739885;81;21407;-77
2020/12/26 08:37:49;;;;;;;0.03;0.00;;;;;;;19.07;46.76;156139.64;1734676;82;21417;-77
2020/12/26 08:40:40;;;;;;;0.10;0.10;;;;;;;18.70;46.38;156041.92;1706629;83;21419;-74
2020/12/26 08:43:18;;;;;;;0.10;0.10;;;;;;;18.47;47.63;155981.19;1762279;80;21325;-66
2020/12/26 08:45:52;;;;;;;0.10;0.10;;;;;;;18.17;46.55;155900.63;1723473;82;21248;-70
2020/12/26 08:48:26;;;;;;;0.00;0.00;;;;;;;18.26;48.77;155925.77;1740487;81;21399;-75
2020/12/26 08:51:00;;;;;;;0.10;0.10;;;;;;;18.30;49.37;155936.34;1719840;81;21518;-78
2020/12/26 08:53:36;;;;;;;0.10;0.10;;;;;;;18.27;48.87;155928.41;1748265;81;21222;-78
2020/12/26 08:56:08;;;;;;;0.10;0.10;;;;;;;18.43;49.39;155970.66;1744837;81;21184;-80
2020/12/26 08:58:49;;;;;;;0.30;0.23;;;;;;;18.53;50.92;155997.06;1741729;82;21407;-79
2020/12/26 09:01:22;;;;;;;0.20;0.10;;;;;;;18.48;47.72;155983.83;1716260;82;22280;-77
2020/12/26 09:04:01;;;;;;;0.30;0.15;;;;;;;18.50;48.28;155987.83;1741095;81;21372;-81
2020/12/26 09:06:33;;;;;;;0.10;0.10;;;;;;;18.34;48.95;155945.56;1741008;82;21264;-83
2020/12/26 09:09:21;;;;;;;0.20;0.20;;;;;;;18.52;49.42;155994.41;1743110;81;21324;-84
2020/12/26 09:12:04;;;;;;;0.10;0.10;;;;;;;18.53;49.15;155997.06;1746126;82;21304;-85
2020/12/26 09:14:36;;;;;;;0.37;0.20;;;;;;;18.70;48.59;156040.63;1723619;82;21248;-76
2020/12/26 09:17:10;;;;;;;0.20;0.20;;;;;;;19.15;48.80;156162.16;1744699;81;21169;-74
2020/12/26 09:19:45;;;;;;;0.20;0.20;;;;;;;19.33;48.73;156208.39;1746879;81;21312;-75
2020/12/26 09:22:17;;;;;;;0.20;0.20;;;;;;;19.15;47.78;156162.16;1750271;81;21407;-79
2020/12/26 09:24:50;;;;;;;0.20;0.20;;;;;;;19.02;47.54;156125.11;1746385;81;21389;-77
2020/12/26 09:27:23;;;;;;;0.23;0.23;;;;;;;18.94;47.26;156104.00;1755575;81;21410;-75
2020/12/26 09:30:07;;;;;;;0.20;0.10;;;;;;;18.63;46.97;156023.45;1755444;81;21442;-75
2020/12/26 09:32:39;;;;;;;0.23;0.20;;;;;;;18.84;48.57;156077.59;1753226;81;21247;-74
2020/12/26 09:35:19;;;;;;;0.20;0.20;;;;;;;18.77;48.94;156060.44;1724288;82;21276;-75
2020/12/26 09:37:53;;;;;;;0.10;0.10;;;;;;;18.64;48.03;156026.09;1747451;81;21344;-74
2020/12/26 09:40:35;;;;;;;0.20;0.20;;;;;;;18.44;46.89;155973.31;1746127;81;21368;-77
2020/12/26 09:43:07;;;;;;;0.10;0.10;;;;;;;18.33;47.87;155944.28;1753377;81;21213;-75
2020/12/26 09:45:40;;;;;;;0.28;0.28;;;;;;;18.49;49.09;155985.19;1750884;81;21229;-75
2020/12/26 09:48:12;;;;;;;0.28;0.28;;;;;;;18.00;47.47;155854.44;1758205;81;21189;-75
2020/12/26 09:50:46;;;;;;;0.25;0.25;;;;;;;18.11;47.55;155886.11;1754092;81;21807;-72
2020/12/26 09:53:18;;;;;;;0.30;0.30;;;;;;;18.68;50.21;156035.33;1755555;80;22356;-76
2020/12/26 09:55:51;;;;;;;0.62;0.20;;;;;;;18.07;47.49;155872.94;1752101;81;21174;-74
2020/12/26 09:58:25;;;;;;;0.40;0.40;;;;;;;18.58;50.15;156010.23;1744748;81;21736;-75
2020/12/26 10:00:57;;;;;;;0.62;0.30;;;;;;;18.45;47.85;155975.95;1719616;83;21221;-75
2020/12/26 10:03:32;;;;;;;0.45;0.28;;;;;;;18.33;47.15;155942.92;1755560;81;21246;-82
2020/12/26 10:06:04;;;;;;;0.50;0.42;;;;;;;17.89;46.98;155826.75;1757662;81;21424;-77
2020/12/26 10:08:37;;;;;;;0.42;0.40;;;;;;;18.39;49.33;155958.78;1752889;81;21481;-73
2020/12/26 10:11:12;;;;;;;0.40;0.40;;;;;;;18.37;48.59;155953.50;1754089;81;21360;-75
2020/12/26 10:13:45;;;;;;;0.82;0.50;;;;;;;18.40;48.95;155962.73;1721768;82;21244;-75
2020/12/26 10:16:19;;;;;;;0.30;0.30;;;;;;;18.40;49.81;155962.73;1753470;81;21172;-71
2020/12/26 10:18:52;;;;;;;0.45;0.40;;;;;;;18.07;47.94;155872.94;1745202;81;21383;-72
2020/12/26 10:21:24;;;;;;;0.57;0.50;;;;;;;18.29;48.37;155932.34;1721645;83;21320;-71
2020/12/26 10:23:57;;;;;;;0.70;0.60;;;;;;;18.03;48.24;155863.72;1756663;81;21204;-72
2020/12/26 10:26:30;;;;;;;0.60;0.60;;;;;;;18.31;48.49;155937.64;1759814;81;21221;-71
2020/12/26 10:29:03;;;;;;;0.60;0.60;;;;;;;18.29;47.97;155932.34;1757731;81;22109;-73
2020/12/26 10:31:37;;;;;;;0.75;0.60;;;;;;;18.30;48.05;155935.00;1753679;81;21218;-70
2020/12/26 10:34:10;;;;;;;1.25;0.82;;;;;;;17.87;48.29;155821.47;1754651;80;21177;-74
2020/12/26 10:36:43;;;;;;;1.07;0.70;;;;;;;18.06;48.09;155871.59;1751501;81;21241;-71
2020/12/26 10:39:16;;;;;;;1.20;0.90;;;;;;;18.01;48.77;155858.42;1757165;81;21191;-71
2020/12/26 10:41:49;;;;;;;1.45;1.07;;;;;;;18.21;49.78;155912.55;1751260;81;21247;-73
2020/12/26 10:44:22;;;;;;;3.12;1.82;;;;;;;18.28;49.70;155929.75;1734666;81;21409;-73
2020/12/26 10:46:55;;;;;;;5.10;2.67;;;;;;;18.42;49.92;155968.03;1735189;82;21727;-75
2020/12/26 10:49:28;;;;;;;7.85;3.25;;;;;;;18.11;48.20;155886.11;1736188;82;21911;-73
2020/12/26 10:52:00;;;;;;;6.08;3.55;;;;;;;17.62;48.13;155755.50;1732828;81;21812;-73
2020/12/26 10:54:34;;;;;;;8.78;3.90;;;;;;;17.74;48.17;155785.87;1740112;82;21340;-72
2020/12/26 10:57:08;;;;;;;6.83;4.05;;;;;;;17.86;49.30;155818.83;1742735;81;21936;-74
2020/12/26 10:59:42;;;;;;;9.50;4.22;;;;;;;18.13;48.75;155890.09;1743924;81;21168;-73
2020/12/26 11:02:14;;;;;;;5.50;3.30;;;;;;;17.94;49.47;155838.63;1743746;81;21351;-73
2020/12/26 11:04:47;;;;;;;6.67;3.80;;;;;;;18.10;48.57;155882.17;1743612;81;21447;-73
2020/12/26 11:07:21;;;;;;;8.43;3.60;;;;;;;17.98;48.68;155850.50;1743182;81;21242;-75
2020/12/26 11:09:55;;;;;;;5.45;3.65;;;;;;;17.70;48.71;155776.66;1743467;81;21238;-69
2020/12/26 11:12:34;;;;;;;;;;;;;;;17.94;49.02;155838.63;1745311;81;22273;-74
2020/12/26 11:15:06;;;;;;;7.62;4.25;;;;;;;17.63;48.90;155756.84;1736748;82;20273;-76
2020/12/26 11:17:39;;;;;;;8.93;4.20;;;;;;;17.90;48.88;155828.06;1753760;81;21233;-80
2020/12/26 11:20:12;;;;;;;6.60;3.70;;;;;;;17.98;49.33;155849.20;1747570;81;21264;-76
2020/12/26 11:22:45;;;;;;;7.33;2.98;;;;;;;18.00;48.90;155855.78;1751806;81;21179;-73
2020/12/26 11:25:18;;;;;;;6.67;3.55;;;;;;;17.89;48.97;155826.75;1749728;81;21463;-73
2020/12/26 11:27:50;;;;;;;5.17;3.05;;;;;;;18.15;50.45;155895.39;1734891;81;21760;-72
2020/12/26 11:30:22;;;;;;;6.08;3.50;;;;;;;17.92;49.16;155834.69;1733151;81;21429;-72
2020/12/26 11:32:55;;;;;;;10.68;3.40;;;;;;;18.12;50.14;155888.75;1711469;83;21429;-74
2020/12/26 11:35:28;;;;;;;7.67;3.55;;;;;;;18.18;49.22;155903.27;1748256;82;21578;-73
2020/12/26 11:38:00;;;;;;;8.15;4.10;;;;;;;17.96;48.86;155843.91;1752930;81;21767;-72
2020/12/26 11:40:33;;;;;;;5.92;3.42;;;;;;;18.15;49.64;155896.69;1753055;80;21336;-70
2020/12/26 11:43:06;;;;;;;6.72;3.75;;;;;;;18.32;49.43;155940.28;1733965;82;21191;-72
2020/12/26 11:45:41;;;;;;;6.03;3.40;;;;;;;18.26;50.02;155925.77;1707152;82;21946;-77
2020/12/26 11:48:14;;;;;;;8.88;3.70;;;;;;;18.15;49.10;155896.69;1725470;82;21201;-75
2020/12/26 11:50:48;;;;;;;6.47;3.30;;;;;;;18.34;49.95;155945.56;1721268;82;21252;-75
2020/12/26 11:53:21;;;;;;;9.50;4.12;;;;;;;18.32;49.90;155941.63;1696927;83;21843;-72
2020/12/26 11:55:54;;;;;;;6.62;3.50;;;;;;;18.08;48.53;155875.58;1717286;83;21407;-75
2020/12/26 11:58:26;;;;;;;8.03;4.80;;;;;;;18.24;49.19;155920.48;1727599;82;21189;-73